Time;durP1;ratioP1;P1;durP2;ratioP2;P2;SDS_P1;SDS_P2;PMS_P1;PMS_P2;Temp;Humidity;BMP_temperature;BMP_pressure;BME280_temperature;BME280_humidity;BME280_pressure;Samples;Min_cycle;Max_cycle;Signal;HPM_P1;HPM_P2
2023/11/23 00:00:58;;;;;;;;;;;;;;;-7.30;67.11;99516.13;4998955;28;20032;-78
2023/11/23 00:03:25;;;;;;;;;;;;;;;-7.30;66.80;99505.50;5002651;28;19925;-78
2023/11/23 00:05:50;;;;;;;;;;;;;;;-7.28;67.71;99513.28;4984813;28;20391;-77
2023/11/23 00:08:16;;;;;;;;;;;;;;;-7.33;67.99;99511.13;4990867;28;19933;-78
2023/11/23 00:10:42;;;;;;;;;;;;;;;-7.31;69.11;99508.28;4983659;28;20379;-77
2023/11/23 00:13:08;;;;;;;;;;;;;;;-7.27;70.32;99512.28;5001415;28;19926;-78
2023/11/23 00:15:34;;;;;;;;;;;;;;;-7.35;69.94;99507.78;5007126;28;20071;-77
2023/11/23 00:18:01;;;;;;;;;;;;;;;-7.47;70.81;99504.63;5000480;28;20359;-77
2023/11/23 00:20:27;;;;;;;;;;;;;;;-7.50;70.05;99499.66;4998456;28;19983;-77
2023/11/23 00:22:53;;;;;;;;;;;;;;;-7.49;70.55;99503.13;5002117;28;20285;-77
2023/11/23 00:25:19;;;;;;;;;;;;;;;-7.47;69.95;99504.63;5000909;28;19926;-77
2023/11/23 00:27:45;;;;;;;;;;;;;;;-7.49;69.59;99501.31;5001751;28;20370;-77
2023/11/23 00:30:11;;;;;;;;;;;;;;;-7.48;70.35;99502.97;5001289;28;19925;-77
2023/11/23 00:32:37;;;;;;;;;;;;;;;-7.49;70.65;99492.50;5000964;28;20408;-76
2023/11/23 00:35:06;;;;;;;;;;;;;;;-7.42;70.33;99488.19;4997451;28;19932;-76
2023/11/23 00:37:32;;;;;;;;;;;;;;;-7.43;69.28;99471.41;4977506;28;19931;-77
2023/11/23 00:39:58;;;;;;;;;;;;;;;-7.45;69.49;99462.78;4998720;28;19929;-72
2023/11/23 00:42:24;;;;;;;;;;;;;;;-7.46;68.97;99469.09;4977170;28;19978;-72
2023/11/23 00:44:50;;;;;;;;;;;;;;;-7.45;68.87;99448.69;5002837;28;19978;-72
2023/11/23 00:47:17;;;;;;;;;;;;;;;-7.45;67.79;99456.66;5001110;28;20012;-73
2023/11/23 00:49:43;;;;;;;;;;;;;;;-7.42;67.31;99456.31;4994342;28;19925;-72
2023/11/23 00:52:10;;;;;;;;;;;;;;;-7.41;66.69;99442.03;5001991;28;19925;-76
2023/11/23 00:54:39;;;;;;;;;;;;;;;-7.38;67.70;99440.88;4986581;28;20317;-77
2023/11/23 00:57:06;;;;;;;;;;;;;;;-7.37;67.42;99438.03;5003419;28;19936;-77
2023/11/23 00:59:32;;;;;;;;;;;;;;;-7.39;65.82;99431.25;5001004;28;19929;-77
2023/11/23 01:01:57;;;;;;;;;;;;;;;-7.44;63.86;99434.41;4992913;28;20091;-77
2023/11/23 01:04:23;;;;;;;;;;;;;;;-7.46;64.44;99434.56;4976747;28;19925;-72
2023/11/23 01:06:49;;;;;;;;;;;;;;;-7.49;64.37;99432.25;4996610;28;20028;-77
2023/11/23 01:09:17;;;;;;;;;;;;;;;-7.58;63.03;99420.78;4999507;28;20277;-79
2023/11/23 01:11:43;;;;;;;;;;;;;;;-7.62;62.29;99424.78;4996717;28;19931;-78
2023/11/23 01:14:09;;;;;;;;;;;;;;;-7.70;61.02;99425.63;5004396;28;19926;-78
2023/11/23 01:16:35;;;;;;;;;;;;;;;-7.70;61.33;99422.13;5001652;28;19926;-78
2023/11/23 01:19:01;;;;;;;;;;;;;;;-7.70;62.15;99411.50;5000084;28;19925;-78
2023/11/23 01:21:27;;;;;;;;;;;;;;;-7.59;63.06;99405.84;4998492;28;19971;-78
2023/11/23 01:23:54;;;;;;;;;;;;;;;-7.49;64.20;99396.88;4996778;28;19932;-78
2023/11/23 01:26:21;;;;;;;;;;;;;;;-7.44;64.35;99400.69;4998308;28;19925;-78
2023/11/23 01:28:47;;;;;;;;;;;;;;;-7.43;65.61;99394.38;4997075;28;20032;-79
2023/11/23 01:31:13;;;;;;;;;;;;;;;-7.53;63.80;99392.91;4998588;28;20024;-73
2023/11/23 01:33:39;;;;;;;;;;;;;;;-7.56;63.99;99380.81;4996035;28;19925;-73
2023/11/23 01:36:05;;;;;;;;;;;;;;;-7.57;62.88;99379.13;4997958;28;19925;-73
2023/11/23 01:38:31;;;;;;;;;;;;;;;-7.63;63.90;99369.16;5003598;28;20024;-73
2023/11/23 01:40:57;;;;;;;;;;;;;;;-7.62;65.04;99368.16;4989934;28;20032;-73
2023/11/23 01:43:24;;;;;;;;;;;;;;;-7.57;65.53;99366.69;4998456;28;20434;-73
2023/11/23 01:45:50;;;;;;;;;;;;;;;-7.53;64.35;99367.19;4988926;28;20025;-73
2023/11/23 01:48:17;;;;;;;;;;;;;;;-7.51;63.89;99362.53;4968119;28;20040;-73
2023/11/23 01:50:45;;;;;;;;;;;;;;;-7.45;64.13;99361.03;4997798;28;20399;-79
2023/11/23 01:53:11;;;;;;;;;;;;;;;-7.43;63.53;99362.50;4991136;28;19925;-78
2023/11/23 01:55:37;;;;;;;;;;;;;;;-7.50;63.41;99364.19;4989469;28;19925;-78
2023/11/23 01:58:04;;;;;;;;;;;;;;;-7.48;64.19;99358.72;4989595;28;19929;-72
2023/11/23 02:00:31;;;;;;;;;;;;;;;-7.56;64.90;99360.38;4976539;28;19978;-73
2023/11/23 02:02:59;;;;;;;;;;;;;;;-7.68;65.08;99356.38;5001053;28;19929;-73
2023/11/23 02:05:25;;;;;;;;;;;;;;;-7.86;65.44;99356.59;5000621;28;19925;-73
2023/11/23 02:07:51;;;;;;;;;;;;;;;-7.99;65.63;99368.50;4999774;28;19929;-72
2023/11/23 02:10:18;;;;;;;;;;;;;;;-8.05;65.62;99363.03;4979136;28;19929;-72
2023/11/23 02:12:46;;;;;;;;;;;;;;;-8.02;65.82;99365.34;5000874;28;19925;-71
2023/11/23 02:15:12;;;;;;;;;;;;;;;-7.95;66.05;99371.69;5011137;28;20459;-72
2023/11/23 02:17:41;;;;;;;;;;;;;;;-7.97;64.39;99353.25;4996376;28;19939;-72
2023/11/23 02:20:09;;;;;;;;;;;;;;;-7.95;63.96;99357.56;5012574;28;19964;-73
2023/11/23 02:22:34;;;;;;;;;;;;;;;-7.93;64.00;99337.84;4998121;28;19925;-73
2023/11/23 02:25:02;;;;;;;;;;;;;;;-7.92;65.92;99336.84;4970727;28;19947;-73
2023/11/23 02:27:29;;;;;;;;;;;;;;;-8.00;65.04;99323.53;4979948;28;20273;-73
2023/11/23 02:29:56;;;;;;;;;;;;;;;-8.05;65.04;99318.72;4997610;28;19933;-73
2023/11/23 02:32:25;;;;;;;;;;;;;;;-8.13;65.83;99324.03;4993783;28;19926;-73
2023/11/23 02:34:51;;;;;;;;;;;;;;;-8.09;65.81;99317.41;5010218;28;19932;-73
2023/11/23 02:37:17;;;;;;;;;;;;;;;-8.02;64.84;99309.63;4995437;28;19925;-73
2023/11/23 02:39:43;;;;;;;;;;;;;;;-8.01;64.04;99311.28;4998760;28;19925;-72
2023/11/23 02:42:11;;;;;;;;;;;;;;;-8.05;65.26;99302.81;4996074;28;19925;-77
2023/11/23 02:44:37;;;;;;;;;;;;;;;-8.02;65.20;99305.16;5004530;28;20012;-78
2023/11/23 02:47:03;;;;;;;;;;;;;;;-7.95;65.14;99299.16;4978999;28;20028;-73
2023/11/23 02:49:29;;;;;;;;;;;;;;;-7.91;65.92;99298.66;4997960;28;20320;-73
2023/11/23 02:51:55;;;;;;;;;;;;;;;-7.92;65.08;99299.66;4996810;28;20338;-74
2023/11/23 02:54:21;;;;;;;;;;;;;;;-7.95;64.90;99296.50;5005996;28;19926;-77
2023/11/23 02:56:46;;;;;;;;;;;;;;;-7.96;65.74;99287.75;4999010;28;20267;-78
2023/11/23 02:59:14;;;;;;;;;;;;;;;-7.92;66.36;99286.41;4999044;28;19925;-78
2023/11/23 03:01:39;;;;;;;;;;;;;;;-7.88;65.60;99277.09;5031321;28;19924;-77
2023/11/23 03:04:05;;;;;;;;;;;;;;;-7.89;65.80;99280.75;5001109;28;19929;-78
2023/11/23 03:06:31;;;;;;;;;;;;;;;-7.97;65.18;99267.47;4999249;28;20020;-78
2023/11/23 03:08:57;;;;;;;;;;;;;;;-8.18;64.86;99260.03;5000576;28;19934;-77
2023/11/23 03:11:25;;;;;;;;;;;;;;;-8.27;65.36;99260.03;4976140;28;20393;-78
2023/11/23 03:13:52;;;;;;;;;;;;;;;-8.30;64.86;99248.91;4993711;28;19925;-77
2023/11/23 03:16:19;;;;;;;;;;;;;;;-8.25;65.31;99257.22;4998907;28;19933;-78
2023/11/23 03:18:45;;;;;;;;;;;;;;;-8.16;64.44;99255.41;4987069;28;20782;-78
2023/11/23 03:21:11;;;;;;;;;;;;;;;-8.16;64.20;99242.94;5005648;28;19979;-78
2023/11/23 03:23:38;;;;;;;;;;;;;;;-8.10;64.01;99238.78;4976263;28;19975;-78
2023/11/23 03:26:04;;;;;;;;;;;;;;;-8.13;64.82;99228.53;5000644;28;19925;-78
2023/11/23 03:28:30;;;;;;;;;;;;;;;-8.15;65.41;99215.41;4997538;28;20494;-78
2023/11/23 03:30:56;;;;;;;;;;;;;;;-8.10;64.19;99217.56;4998626;28;19975;-78
2023/11/23 03:33:24;;;;;;;;;;;;;;;-8.15;62.77;99212.75;5003377;28;20361;-78
2023/11/23 03:35:50;;;;;;;;;;;;;;;-8.22;63.67;99213.59;5003562;28;19931;-78
2023/11/23 03:38:15;;;;;;;;;;;;;;;-8.23;63.32;99202.16;4981731;28;19949;-78
2023/11/23 03:40:42;;;;;;;;;;;;;;;-8.20;63.51;99180.59;5001626;28;20405;-77
2023/11/23 03:43:09;;;;;;;;;;;;;;;-8.18;63.25;99172.50;4996750;28;20091;-73
2023/11/23 03:45:35;;;;;;;;;;;;;;;-8.17;64.74;99179.44;4992946;28;20003;-72
2023/11/23 03:48:01;;;;;;;;;;;;;;;-8.14;64.78;99192.38;4997727;28;19956;-73
2023/11/23 03:50:29;;;;;;;;;;;;;;;-8.20;65.32;99196.53;4995836;28;19936;-73
2023/11/23 03:52:55;;;;;;;;;;;;;;;-8.29;62.61;99182.44;5000076;28;20392;-73
2023/11/23 03:55:22;;;;;;;;;;;;;;;-8.42;62.54;99188.25;5000157;28;19971;-72
2023/11/23 03:57:48;;;;;;;;;;;;;;;-8.48;63.64;99173.00;4997601;28;19929;-78
2023/11/23 04:00:20;;;;;;;;;;;;;;;-8.45;63.67;99177.97;5005712;28;20312;-77
2023/11/23 04:02:46;;;;;;;;;;;;;;;-8.48;63.43;99180.13;4969307;28;20554;-72
2023/11/23 04:05:14;;;;;;;;;;;;;;;-8.50;64.31;99172.38;4995527;28;20027;-72
2023/11/23 04:07:42;;;;;;;;;;;;;;;-8.43;64.42;99177.81;4999664;28;19995;-73
2023/11/23 04:10:09;;;;;;;;;;;;;;;-8.36;64.25;99160.22;4995065;28;19933;-78
2023/11/23 04:12:35;;;;;;;;;;;;;;;-8.23;64.23;99162.38;5002180;28;20014;-78
2023/11/23 04:15:01;;;;;;;;;;;;;;;-8.22;63.16;99156.06;5000241;28;20467;-78
2023/11/23 04:17:29;;;;;;;;;;;;;;;-8.15;64.62;99154.38;4983902;28;19925;-78
2023/11/23 04:19:55;;;;;;;;;;;;;;;-8.09;64.25;99150.22;4981682;28;20410;-79
2023/11/23 04:22:24;;;;;;;;;;;;;;;-8.06;64.63;99146.41;4981155;28;19926;-78
2023/11/23 04:24:51;;;;;;;;;;;;;;;-8.19;64.43;99141.66;5001443;28;19926;-78
2023/11/23 04:27:17;;;;;;;;;;;;;;;-8.19;65.82;99145.13;5009093;28;19925;-78
2023/11/23 04:29:43;;;;;;;;;;;;;;;-8.19;65.60;99137.16;5004745;28;19944;-77
2023/11/23 04:32:11;;;;;;;;;;;;;;;-8.19;66.31;99136.34;5003742;28;19925;-75
2023/11/23 04:34:37;;;;;;;;;;;;;;;-8.17;64.79;99129.03;4982746;28;20072;-72
2023/11/23 04:37:04;;;;;;;;;;;;;;;-8.33;63.73;99116.63;4999599;28;20468;-72
2023/11/23 04:39:30;;;;;;;;;;;;;;;-8.44;63.15;99115.16;4999197;28;19929;-72
2023/11/23 04:41:57;;;;;;;;;;;;;;;-8.50;63.37;99121.97;4998120;28;20516;-72
2023/11/23 04:44:23;;;;;;;;;;;;;;;-8.53;63.04;99111.72;4993562;28;19929;-72
2023/11/23 04:46:50;;;;;;;;;;;;;;;-8.56;62.83;99110.22;4998184;28;19926;-78
2023/11/23 04:49:16;;;;;;;;;;;;;;;-8.48;62.96;99108.53;4991125;28;19925;-78
2023/11/23 04:51:42;;;;;;;;;;;;;;;-8.39;63.98;99096.91;4999166;28;19936;-78
2023/11/23 04:54:10;;;;;;;;;;;;;;;-8.35;64.56;99092.94;4995523;28;20169;-78
2023/11/23 04:56:36;;;;;;;;;;;;;;;-8.29;63.99;99094.06;5005266;28;19968;-78
2023/11/23 04:59:04;;;;;;;;;;;;;;;-8.30;64.44;99098.56;4997796;28;20315;-78
2023/11/23 05:01:30;;;;;;;;;;;;;;;-8.36;64.43;99085.94;4984084;28;19932;-79
2023/11/23 05:03:57;;;;;;;;;;;;;;;-8.42;64.39;99098.09;4988395;28;19951;-79
2023/11/23 05:06:23;;;;;;;;;;;;;;;-8.51;63.08;99085.84;5003517;28;20701;-73
2023/11/23 05:08:49;;;;;;;;;;;;;;;-8.55;63.05;99087.19;4999553;28;19925;-73
2023/11/23 05:11:15;;;;;;;;;;;;;;;-8.63;63.20;99082.75;4992227;28;20269;-73
2023/11/23 05:13:41;;;;;;;;;;;;;;;-8.60;62.98;99070.94;4999641;28;19935;-73
2023/11/23 05:16:09;;;;;;;;;;;;;;;-8.62;63.80;99071.13;5005687;28;20366;-73
2023/11/23 05:18:35;;;;;;;;;;;;;;;-8.60;64.79;99061.19;4992022;28;19936;-73
2023/11/23 05:21:03;;;;;;;;;;;;;;;-8.58;65.00;99055.72;4999018;28;19925;-72
2023/11/23 05:23:29;;;;;;;;;;;;;;;-8.60;64.35;99058.53;5027670;28;20379;-73
2023/11/23 05:25:56;;;;;;;;;;;;;;;-8.55;64.95;99052.72;4993518;28;19946;-72
2023/11/23 05:28:21;;;;;;;;;;;;;;;-8.52;64.92;99051.53;4993800;28;19958;-73
2023/11/23 05:30:47;;;;;;;;;;;;;;;-8.45;65.77;99045.34;4990928;28;20879;-72
2023/11/23 05:33:14;;;;;;;;;;;;;;;-8.42;64.68;99042.41;4989150;28;19932;-72
2023/11/23 05:35:40;;;;;;;;;;;;;;;-8.32;64.92;99039.53;4983911;28;20031;-72
2023/11/23 05:38:06;;;;;;;;;;;;;;;-8.39;64.39;99017.34;4979786;28;20741;-72
2023/11/23 05:40:47;;;;;;;;;;;;;;;-8.18;64.04;99030.03;5021851;28;20014;-72
2023/11/23 05:43:24;;;;;;;;;;;;;;;-8.27;63.26;99039.84;4980711;28;19930;-72
2023/11/23 05:45:50;;;;;;;;;;;;;;;-8.41;63.55;99041.41;4985963;28;19928;-72
2023/11/23 05:48:17;;;;;;;;;;;;;;;-8.47;65.15;99034.09;4993991;28;19925;-72
2023/11/23 05:50:43;;;;;;;;;;;;;;;-8.48;66.31;99037.75;4993469;28;19929;-72
2023/11/23 05:53:09;;;;;;;;;;;;;;;-8.45;66.15;99032.09;5003210;28;20924;-72
2023/11/23 05:55:35;;;;;;;;;;;;;;;-8.37;64.89;99030.44;5004569;28;19978;-75
2023/11/23 05:58:01;;;;;;;;;;;;;;;-8.34;65.27;99022.97;4976955;28;20398;-73
2023/11/23 06:00:27;;;;;;;;;;;;;;;-8.39;65.03;99027.94;4994731;28;19931;-72
2023/11/23 06:02:53;;;;;;;;;;;;;;;-8.41;64.88;99027.28;5013626;28;20027;-72
2023/11/23 06:05:20;;;;;;;;;;;;;;;-8.32;65.02;99018.31;5002447;28;19967;-77
2023/11/23 06:07:46;;;;;;;;;;;;;;;-8.32;64.64;99026.28;4990037;28;20316;-78
2023/11/23 06:10:12;;;;;;;;;;;;;;;-8.31;65.33;99017.31;4993353;28;19925;-78
2023/11/23 06:12:38;;;;;;;;;;;;;;;-8.30;64.94;99004.88;4984344;28;19974;-78
2023/11/23 06:15:04;;;;;;;;;;;;;;;-8.24;64.07;99011.31;4976995;28;20301;-78
2023/11/23 06:17:30;;;;;;;;;;;;;;;-8.34;63.56;99009.72;4998993;28;19932;-78
2023/11/23 06:19:56;;;;;;;;;;;;;;;-8.35;64.03;98988.66;5020614;28;19961;-79
2023/11/23 06:22:24;;;;;;;;;;;;;;;-8.36;64.03;98990.47;5001998;28;20502;-78
2023/11/23 06:24:50;;;;;;;;;;;;;;;-8.34;64.25;98971.75;4981272;28;19925;-72
2023/11/23 06:27:16;;;;;;;;;;;;;;;-8.31;63.91;98977.53;4968272;28;20312;-72
2023/11/23 06:29:42;;;;;;;;;;;;;;;-8.31;63.92;98974.03;4998192;28;20011;-72
2023/11/23 06:32:08;;;;;;;;;;;;;;;-8.33;63.45;98963.63;5005001;28;20388;-78
2023/11/23 06:34:34;;;;;;;;;;;;;;;-8.35;63.38;98960.31;5003751;28;19936;-77
2023/11/23 06:37:00;;;;;;;;;;;;;;;-8.38;63.59;98965.13;5002339;28;19931;-78
2023/11/23 06:39:27;;;;;;;;;;;;;;;-8.35;63.24;98946.22;4982271;28;20308;-78
2023/11/23 06:41:53;;;;;;;;;;;;;;;-8.50;64.42;98930.25;4998563;28;19933;-78
2023/11/23 06:44:19;;;;;;;;;;;;;;;-8.53;64.08;98942.03;4998960;28;19975;-77
2023/11/23 06:46:45;;;;;;;;;;;;;;;-8.59;64.21;98930.28;4999837;28;19931;-78
2023/11/23 06:49:11;;;;;;;;;;;;;;;-8.60;63.98;98920.66;4997907;28;20036;-78
2023/11/23 06:51:37;;;;;;;;;;;;;;;-8.61;64.02;98910.22;4999294;28;19929;-78
2023/11/23 06:54:03;;;;;;;;;;;;;;;-8.61;63.58;98919.00;5006080;28;20388;-78
2023/11/23 06:56:30;;;;;;;;;;;;;;;-8.59;63.25;98908.22;5006231;28;20479;-73
2023/11/23 06:58:56;;;;;;;;;;;;;;;-8.60;62.13;98906.56;5008635;28;19925;-72
2023/11/23 07:01:22;;;;;;;;;;;;;;;-8.75;62.23;98895.88;5003213;28;19925;-73
2023/11/23 07:03:48;;;;;;;;;;;;;;;-8.81;62.58;98894.72;4999612;28;19967;-72
2023/11/23 07:06:15;;;;;;;;;;;;;;;-8.78;62.58;98890.91;4989530;28;19925;-72
2023/11/23 07:08:41;;;;;;;;;;;;;;;-8.79;63.10;98889.28;4993205;28;19926;-73
2023/11/23 07:11:07;;;;;;;;;;;;;;;-8.86;62.98;98889.94;5000226;28;19932;-73
2023/11/23 07:13:35;;;;;;;;;;;;;;;-8.88;63.58;98883.19;4999515;28;19929;-77
2023/11/23 07:16:04;;;;;;;;;;;;;;;-8.91;63.54;98872.91;4998345;28;19929;-77
2023/11/23 07:18:30;;;;;;;;;;;;;;;-8.88;64.73;98870.72;4996705;28;19979;-78
2023/11/23 07:20:57;;;;;;;;;;;;;;;-8.94;65.29;98863.47;5000445;28;19960;-77
2023/11/23 07:23:23;;;;;;;;;;;;;;;-8.88;64.56;98864.63;5002398;28;19925;-78
2023/11/23 07:25:49;;;;;;;;;;;;;;;-8.83;63.95;98849.84;4998372;28;20432;-77
2023/11/23 07:28:15;;;;;;;;;;;;;;;-8.83;64.36;98846.38;5005056;28;19925;-77
2023/11/23 07:30:42;;;;;;;;;;;;;;;-8.77;64.28;98845.69;5021111;28;20407;-77
2023/11/23 07:33:09;;;;;;;;;;;;;;;-8.73;64.17;98839.06;5003267;28;19925;-72
2023/11/23 07:35:35;;;;;;;;;;;;;;;-8.56;64.06;98844.25;5003613;28;19926;-72
2023/11/23 07:38:03;;;;;;;;;;;;;;;-8.36;63.83;98844.59;4989653;28;19940;-72
2023/11/23 07:40:28;;;;;;;;;;;;;;;-8.32;62.67;98834.47;5010520;28;19987;-72
2023/11/23 07:42:54;;;;;;;;;;;;;;;-8.35;62.42;98838.31;5008848;28;19952;-72
2023/11/23 07:45:20;;;;;;;;;;;;;;;-8.51;62.61;98822.50;5001931;28;20489;-72
2023/11/23 07:47:48;;;;;;;;;;;;;;;-8.62;62.70;98818.44;4998773;28;19947;-77
2023/11/23 07:50:17;;;;;;;;;;;;;;;-8.55;63.34;98822.06;5003812;28;20023;-78
2023/11/23 07:52:42;;;;;;;;;;;;;;;-8.58;63.13;98809.16;5013999;28;19947;-78
2023/11/23 07:55:10;;;;;;;;;;;;;;;-8.58;63.09;98791.41;4987091;28;20554;-77
2023/11/23 07:57:36;;;;;;;;;;;;;;;-8.46;63.47;98783.81;4982822;28;20319;-77
2023/11/23 08:00:04;;;;;;;;;;;;;;;-8.44;63.52;98786.31;5002207;28;19925;-78
2023/11/23 08:02:32;;;;;;;;;;;;;;;-8.45;63.44;98772.22;5007919;28;19929;-77
2023/11/23 08:04:59;;;;;;;;;;;;;;;-8.42;63.21;98771.88;5012621;28;19925;-78
2023/11/23 08:07:26;;;;;;;;;;;;;;;-8.38;63.07;98760.91;5002529;28;19925;-78
2023/11/23 08:09:51;;;;;;;;;;;;;;;-8.29;62.79;98736.81;5008427;28;19929;-78
2023/11/23 08:12:18;;;;;;;;;;;;;;;-8.24;62.49;98733.63;5023122;28;20388;-78
2023/11/23 08:14:44;;;;;;;;;;;;;;;-8.22;62.46;98725.47;5016467;28;20032;-78
2023/11/23 08:17:11;;;;;;;;;;;;;;;-8.10;62.42;98708.13;5004198;28;20001;-78
2023/11/23 08:19:37;;;;;;;;;;;;;;;-7.95;62.37;98705.50;4995057;28;19933;-78
2023/11/23 08:22:08;;;;;;;;;;;;;;;-7.89;62.03;98696.81;5011603;28;20023;-78
2023/11/23 08:24:33;;;;;;;;;;;;;;;-7.84;61.55;98707.69;5002951;28;19925;-78
2023/11/23 08:26:59;;;;;;;;;;;;;;;-7.79;61.79;98690.41;5003027;28;20235;-78
2023/11/23 08:29:28;;;;;;;;;;;;;;;-7.69;61.69;98691.78;4983036;28;20029;-78
2023/11/23 08:31:53;;;;;;;;;;;;;;;-7.70;61.06;98666.25;5016067;28;19933;-78
2023/11/23 08:34:19;;;;;;;;;;;;;;;-7.71;61.38;98656.63;5015236;28;19929;-78
2023/11/23 08:36:46;;;;;;;;;;;;;;;-7.64;61.32;98648.75;4985354;28;19925;-78
2023/11/23 08:39:15;;;;;;;;;;;;;;;-7.44;60.95;98648.97;5005453;28;19929;-78
2023/11/23 08:42:03;;;;;;;;;;;;;;;-7.27;60.76;98630.16;4994100;28;19929;-78
2023/11/23 08:44:29;;;;;;;;;;;;;;;-7.34;60.44;98616.78;5008084;28;19925;-78
2023/11/23 08:46:57;;;;;;;;;;;;;;;-7.45;60.81;98612.00;4988840;28;20610;-78
2023/11/23 08:49:25;;;;;;;;;;;;;;;-7.58;60.73;98616.13;5014787;28;19925;-78
2023/11/23 08:51:51;;;;;;;;;;;;;;;-7.65;61.20;98609.91;5004642;28;19926;-78
2023/11/23 08:54:19;;;;;;;;;;;;;;;-7.65;61.86;98599.28;4987644;28;19940;-78
2023/11/23 08:56:47;;;;;;;;;;;;;;;-7.65;61.20;98587.84;5005853;28;19925;-78
2023/11/23 08:59:14;;;;;;;;;;;;;;;-7.72;61.56;98593.09;5004812;28;19996;-78
2023/11/23 09:01:40;;;;;;;;;;;;;;;-7.71;61.30;98578.81;4990248;28;19925;-78
2023/11/23 09:04:06;;;;;;;;;;;;;;;-7.73;61.39;98576.31;5007531;28;20348;-78
2023/11/23 09:06:32;;;;;;;;;;;;;;;-7.66;61.38;98552.50;5011148;28;19925;-72
2023/11/23 09:09:00;;;;;;;;;;;;;;;-7.53;61.26;98564.28;5020804;28;20341;-71
2023/11/23 09:11:27;;;;;;;;;;;;;;;-7.40;61.18;98559.13;4989502;28;19931;-72
2023/11/23 09:13:53;;;;;;;;;;;;;;;-7.32;60.91;98560.84;4992523;28;19925;-72
2023/11/23 09:16:20;;;;;;;;;;;;;;;-7.44;60.86;98544.59;5006243;28;19930;-72
2023/11/23 09:18:46;;;;;;;;;;;;;;;-7.60;61.37;98537.66;5004011;28;20139;-72
2023/11/23 09:21:12;;;;;;;;;;;;;;;-7.64;61.61;98534.56;5012481;28;19925;-72
2023/11/23 09:23:40;;;;;;;;;;;;;;;-7.66;61.50;98528.59;4973447;28;20478;-73
2023/11/23 09:26:07;;;;;;;;;;;;;;;-7.67;62.21;98540.25;5001677;28;20373;-79
2023/11/23 09:28:34;;;;;;;;;;;;;;;-7.71;62.06;98510.59;4994353;28;19971;-72
2023/11/23 09:31:04;;;;;;;;;;;;;;;-7.72;61.83;98505.47;5018873;28;19931;-72
2023/11/23 09:33:31;;;;;;;;;;;;;;;-7.74;61.91;98510.16;5004772;28;20472;-72
2023/11/23 09:36:00;;;;;;;;;;;;;;;-7.89;61.66;98499.56;5003970;28;19929;-72
2023/11/23 09:38:26;;;;;;;;;;;;;;;-7.94;62.11;98488.69;5002162;28;20372;-72
2023/11/23 09:40:53;;;;;;;;;;;;;;;-7.99;62.66;98490.09;5009875;28;19931;-78
2023/11/23 09:43:21;;;;;;;;;;;;;;;-7.99;62.44;98479.47;5006248;28;19925;-72
2023/11/23 09:45:48;;;;;;;;;;;;;;;-8.03;62.13;98474.72;4982807;28;19925;-72
2023/11/23 09:48:15;;;;;;;;;;;;;;;-8.04;62.52;98451.84;4966153;28;19972;-72
2023/11/23 09:50:41;;;;;;;;;;;;;;;-8.06;62.78;98456.53;4979698;28;20315;-72
2023/11/23 09:53:07;;;;;;;;;;;;;;;-8.11;63.09;98422.59;4998981;28;19986;-72
2023/11/23 09:55:33;;;;;;;;;;;;;;;-8.01;62.97;98422.28;5002874;28;19925;-72
2023/11/23 09:57:59;;;;;;;;;;;;;;;-8.07;62.98;98409.78;4997730;28;19936;-72
2023/11/23 10:00:25;;;;;;;;;;;;;;;-8.08;63.39;98416.91;4999024;28;19956;-72
2023/11/23 10:02:56;;;;;;;;;;;;;;;-8.10;62.95;98416.28;4999103;28;20392;-72
2023/11/23 10:05:31;;;;;;;;;;;;;;;-8.08;62.97;98408.13;4984659;28;20312;-78
2023/11/23 10:07:57;;;;;;;;;;;;;;;-8.04;62.42;98404.09;4999119;28;19924;-78
2023/11/23 10:10:24;;;;;;;;;;;;;;;-8.00;63.02;98384.97;5005245;28;20350;-78
2023/11/23 10:12:50;;;;;;;;;;;;;;;-7.98;63.02;98374.13;5001763;28;19970;-78
2023/11/23 10:15:16;;;;;;;;;;;;;;;-7.97;62.96;98362.50;4999614;28;19926;-78
2023/11/23 10:17:41;;;;;;;;;;;;;;;-7.98;62.86;98360.88;4998407;28;20396;-78
2023/11/23 10:20:10;;;;;;;;;;;;;;;-8.01;62.52;98364.75;5004452;28;19947;-78
2023/11/23 10:22:36;;;;;;;;;;;;;;;-8.04;62.34;98351.03;5004134;28;19968;-78
2023/11/23 10:25:02;;;;;;;;;;;;;;;-8.03;62.02;98347.34;4997518;28;19929;-78
2023/11/23 10:27:29;;;;;;;;;;;;;;;-8.07;62.35;98330.19;5000349;28;20198;-78
2023/11/23 10:29:55;;;;;;;;;;;;;;;-8.03;62.37;98318.16;4998703;28;20023;-73
2023/11/23 10:32:22;;;;;;;;;;;;;;;-8.03;62.74;98334.94;5002820;28;20059;-72
2023/11/23 10:34:48;;;;;;;;;;;;;;;-8.06;62.42;98305.28;5003271;28;20307;-72
2023/11/23 10:37:16;;;;;;;;;;;;;;;-8.07;62.66;98291.19;4980706;28;20069;-72
2023/11/23 10:39:43;;;;;;;;;;;;;;;-8.08;62.69;98284.25;5002504;28;19925;-72
2023/11/23 10:42:09;;;;;;;;;;;;;;;-8.03;62.44;98278.38;4983728;28;19933;-78
2023/11/23 10:44:35;;;;;;;;;;;;;;;-8.03;62.55;98257.16;5002760;28;20342;-78
2023/11/23 10:47:04;;;;;;;;;;;;;;;-8.06;62.46;98252.22;4984321;28;19971;-78
2023/11/23 10:49:32;;;;;;;;;;;;;;;-8.08;62.34;98247.09;5022114;28;19976;-78
2023/11/23 10:51:59;;;;;;;;;;;;;;;-8.14;62.75;98238.06;5026154;28;20071;-78
2023/11/23 10:54:27;;;;;;;;;;;;;;;-8.14;62.96;98240.72;5014383;28;19971;-78
2023/11/23 10:56:55;;;;;;;;;;;;;;;-8.07;62.53;98239.97;5004344;28;19926;-78
2023/11/23 10:59:22;;;;;;;;;;;;;;;-8.08;61.96;98257.72;5007412;28;20359;-78
2023/11/23 11:01:50;;;;;;;;;;;;;;;-8.16;61.46;98237.47;5004703;28;19980;-78
2023/11/23 11:04:15;;;;;;;;;;;;;;;-8.20;61.58;98243.31;5003246;28;19936;-79
2023/11/23 11:06:41;;;;;;;;;;;;;;;-8.26;61.68;98234.34;5000524;28;19925;-78
2023/11/23 11:09:14;;;;;;;;;;;;;;;-8.34;62.10;98221.19;5000875;28;19925;-78
2023/11/23 11:11:44;;;;;;;;;;;;;;;-8.33;62.30;98214.88;4988176;28;19925;-78
2023/11/23 11:14:13;;;;;;;;;;;;;;;-8.32;62.47;98196.13;5000391;28;20020;-78
2023/11/23 11:16:39;;;;;;;;;;;;;;;-8.24;62.09;98224.34;5003809;28;19930;-78
2023/11/23 11:19:06;;;;;;;;;;;;;;;-8.22;61.88;98187.00;4999518;28;19925;-78
2023/11/23 11:21:41;;;;;;;;;;;;;;;-8.23;62.00;98180.91;4998148;28;19976;-73
2023/11/23 11:24:15;;;;;;;;;;;;;;;-8.20;62.29;98177.84;5008126;28;19925;-72
2023/11/23 11:26:42;;;;;;;;;;;;;;;-8.17;62.47;98150.13;5007068;28;19925;-72
2023/11/23 11:29:11;;;;;;;;;;;;;;;-8.17;62.49;98142.97;5002684;28;19930;-72
2023/11/23 11:31:37;;;;;;;;;;;;;;;-8.12;62.65;98126.47;4978449;28;19950;-73
2023/11/23 11:34:14;;;;;;;;;;;;;;;-8.10;63.10;98118.34;5013481;28;19925;-72
2023/11/23 11:36:40;;;;;;;;;;;;;;;-8.07;63.53;98112.63;5003672;28;19950;-73
2023/11/23 11:39:07;;;;;;;;;;;;;;;-8.17;64.91;98121.75;5003837;28;20318;-72
2023/11/23 11:41:36;;;;;;;;;;;;;;;-8.33;68.20;98112.28;5002995;28;19926;-72
2023/11/23 11:44:04;;;;;;;;;;;;;;;-8.40;69.51;98085.72;5005036;28;19948;-72
2023/11/23 11:46:30;;;;;;;;;;;;;;;-8.47;71.01;98090.16;5005739;28;20739;-72
2023/11/23 11:48:57;;;;;;;;;;;;;;;-8.49;73.19;98086.88;4992309;28;20757;-72
2023/11/23 11:51:24;;;;;;;;;;;;;;;-8.45;73.33;98061.59;4983650;28;19925;-72
2023/11/23 11:53:50;;;;;;;;;;;;;;;-8.41;74.09;98048.78;4999817;28;19932;-72
2023/11/23 11:56:15;;;;;;;;;;;;;;;-8.40;74.22;98030.03;4973042;28;20454;-74
2023/11/23 11:58:41;;;;;;;;;;;;;;;-8.36;74.86;98040.25;5003217;28;19924;-72
2023/11/23 12:01:08;;;;;;;;;;;;;;;-8.41;74.39;98014.31;4995158;28;19925;-73
2023/11/23 12:03:34;;;;;;;;;;;;;;;-8.49;75.15;98017.94;5023270;28;19981;-78
2023/11/23 12:06:01;;;;;;;;;;;;;;;-8.57;76.65;98012.84;4987774;28;20239;-79
2023/11/23 12:08:31;;;;;;;;;;;;;;;-8.61;76.89;98012.41;5072316;28;19959;-78
2023/11/23 12:10:57;;;;;;;;;;;;;;;-8.64;77.26;98007.50;5032277;28;19968;-78
2023/11/23 12:13:23;;;;;;;;;;;;;;;-8.68;78.30;98006.22;5014354;28;19925;-78
2023/11/23 12:15:51;;;;;;;;;;;;;;;-8.67;79.15;97981.34;5003422;28;19929;-78
2023/11/23 12:18:29;;;;;;;;;;;;;;;-8.68;79.69;97966.47;5002184;28;19925;-72
2023/11/23 12:20:58;;;;;;;;;;;;;;;-8.66;80.13;97968.94;4974749;28;20320;-72
2023/11/23 12:23:24;;;;;;;;;;;;;;;-8.64;79.96;97969.56;4988271;28;19929;-72
2023/11/23 12:25:52;;;;;;;;;;;;;;;-8.73;80.19;97953.84;4992986;28;19938;-72
2023/11/23 12:28:20;;;;;;;;;;;;;;;-8.74;80.81;97949.56;5021538;28;19925;-72
2023/11/23 12:30:46;;;;;;;;;;;;;;;-8.71;80.95;97927.94;5009298;28;20320;-72
2023/11/23 12:33:12;;;;;;;;;;;;;;;-8.74;80.45;97919.56;5003760;28;19986;-72
2023/11/23 12:35:39;;;;;;;;;;;;;;;-8.81;80.53;97922.19;5000625;28;19926;-72
2023/11/23 12:38:06;;;;;;;;;;;;;;;-8.85;81.11;97916.44;4994140;28;19979;-72
2023/11/23 12:40:32;;;;;;;;;;;;;;;-8.84;80.36;97925.22;5003830;28;20462;-71
2023/11/23 12:42:58;;;;;;;;;;;;;;;-8.92;82.07;97897.06;4997097;28;19925;-72
2023/11/23 12:45:24;;;;;;;;;;;;;;;-8.89;82.92;97888.72;4996548;28;20051;-72